sensor_id;sensor_type;location;lat;lon;timestamp;P1;durP1;ratioP1;P2;durP2;ratioP2
6209;SDS011;3138;52.550;13.148;2023-09-08T00:00:11;17.30;;;13.27;;
6209;SDS011;3138;52.550;13.148;2023-09-08T00:02:38;16.10;;;12.83;;
6209;SDS011;3138;52.550;13.148;2023-09-08T00:05:05;18.17;;;12.37;;
6209;SDS011;3138;52.550;13.148;2023-09-08T00:07:37;16.80;;;12.70;;
6209;SDS011;3138;52.550;13.148;2023-09-08T00:10:04;21.07;;;13.43;;
6209;SDS011;3138;52.550;13.148;2023-09-08T00:12:32;21.03;;;14.20;;
6209;SDS011;3138;52.550;13.148;2023-09-08T00:14:58;25.50;;;14.10;;
6209;SDS011;3138;52.550;13.148;2023-09-08T00:17:26;18.73;;;13.77;;
6209;SDS011;3138;52.550;13.148;2023-09-08T00:19:53;23.47;;;13.90;;
6209;SDS011;3138;52.550;13.148;2023-09-08T00:22:19;20.70;;;12.53;;
6209;SDS011;3138;52.550;13.148;2023-09-08T00:24:47;19.43;;;12.83;;
6209;SDS011;3138;52.550;13.148;2023-09-08T00:27:14;16.50;;;12.90;;
6209;SDS011;3138;52.550;13.148;2023-09-08T00:29:41;19.47;;;12.50;;
6209;SDS011;3138;52.550;13.148;2023-09-08T00:32:08;16.73;;;13.53;;
6209;SDS011;3138;52.550;13.148;2023-09-08T00:34:35;18.30;;;13.40;;
6209;SDS011;3138;52.550;13.148;2023-09-08T00:37:02;20.00;;;13.23;;
6209;SDS011;3138;52.550;13.148;2023-09-08T00:39:32;25.63;;;13.10;;
6209;SDS011;3138;52.550;13.148;2023-09-08T00:42:02;19.07;;;13.67;;
6209;SDS011;3138;52.550;13.148;2023-09-08T00:44:29;20.03;;;14.83;;
6209;SDS011;3138;52.550;13.148;2023-09-08T00:46:56;27.57;;;13.37;;
6209;SDS011;3138;52.550;13.148;2023-09-08T00:49:23;18.57;;;14.03;;
6209;SDS011;3138;52.550;13.148;2023-09-08T00:51:50;21.00;;;15.00;;
6209;SDS011;3138;52.550;13.148;2023-09-08T00:54:17;20.80;;;14.63;;
6209;SDS011;3138;52.550;13.148;2023-09-08T00:56:44;21.07;;;14.70;;
6209;SDS011;3138;52.550;13.148;2023-09-08T00:59:16;27.70;;;15.00;;
6209;SDS011;3138;52.550;13.148;2023-09-08T01:01:43;29.23;;;15.77;;
6209;SDS011;3138;52.550;13.148;2023-09-08T01:04:10;19.70;;;15.13;;
6209;SDS011;3138;52.550;13.148;2023-09-08T01:06:37;27.83;;;15.93;;
6209;SDS011;3138;52.550;13.148;2023-09-08T01:09:04;18.57;;;14.13;;
6209;SDS011;3138;52.550;13.148;2023-09-08T01:11:31;21.77;;;14.63;;
6209;SDS011;3138;52.550;13.148;2023-09-08T01:13:58;23.00;;;16.70;;
6209;SDS011;3138;52.550;13.148;2023-09-08T01:16:26;18.93;;;15.37;;
6209;SDS011;3138;52.550;13.148;2023-09-08T01:18:53;20.77;;;14.40;;
6209;SDS011;3138;52.550;13.148;2023-09-08T01:24:31;23.53;;;14.57;;
6209;SDS011;3138;52.550;13.148;2023-09-08T01:27:12;20.40;;;15.07;;
6209;SDS011;3138;52.550;13.148;2023-09-08T01:29:40;22.00;;;14.40;;
6209;SDS011;3138;52.550;13.148;2023-09-08T01:32:08;16.43;;;13.43;;
6209;SDS011;3138;52.550;13.148;2023-09-08T01:34:36;24.83;;;14.57;;
6209;SDS011;3138;52.550;13.148;2023-09-08T01:37:04;17.50;;;13.67;;
6209;SDS011;3138;52.550;13.148;2023-09-08T01:39:32;28.57;;;15.30;;
6209;SDS011;3138;52.550;13.148;2023-09-08T01:41:59;19.83;;;15.87;;
6209;SDS011;3138;52.550;13.148;2023-09-08T01:44:27;23.00;;;14.83;;
6209;SDS011;3138;52.550;13.148;2023-09-08T01:46:54;23.20;;;14.83;;
6209;SDS011;3138;52.550;13.148;2023-09-08T01:49:23;24.13;;;15.10;;
6209;SDS011;3138;52.550;13.148;2023-09-08T01:51:50;18.50;;;14.80;;
6209;SDS011;3138;52.550;13.148;2023-09-08T01:54:16;19.33;;;14.83;;
6209;SDS011;3138;52.550;13.148;2023-09-08T01:56:43;23.47;;;14.50;;
6209;SDS011;3138;52.550;13.148;2023-09-08T01:59:10;24.93;;;14.70;;
6209;SDS011;3138;52.550;13.148;2023-09-08T02:01:38;18.63;;;14.07;;
6209;SDS011;3138;52.550;13.148;2023-09-08T02:04:05;21.33;;;14.80;;
6209;SDS011;3138;52.550;13.148;2023-09-08T02:06:32;21.33;;;14.00;;
6209;SDS011;3138;52.550;13.148;2023-09-08T02:08:59;21.10;;;15.00;;
6209;SDS011;3138;52.550;13.148;2023-09-08T02:11:26;21.30;;;16.50;;
6209;SDS011;3138;52.550;13.148;2023-09-08T02:13:53;20.43;;;14.20;;
6209;SDS011;3138;52.550;13.148;2023-09-08T02:16:19;18.07;;;15.00;;
6209;SDS011;3138;52.550;13.148;2023-09-08T02:18:47;18.30;;;14.63;;
6209;SDS011;3138;52.550;13.148;2023-09-08T02:21:16;19.27;;;14.10;;
6209;SDS011;3138;52.550;13.148;2023-09-08T02:23:43;18.07;;;12.43;;
6209;SDS011;3138;52.550;13.148;2023-09-08T02:26:10;24.10;;;14.20;;
6209;SDS011;3138;52.550;13.148;2023-09-08T02:28:38;21.10;;;14.27;;
6209;SDS011;3138;52.550;13.148;2023-09-08T02:31:04;20.73;;;15.43;;
6209;SDS011;3138;52.550;13.148;2023-09-08T02:33:31;26.13;;;14.73;;
6209;SDS011;3138;52.550;13.148;2023-09-08T02:36:02;25.23;;;15.10;;
6209;SDS011;3138;52.550;13.148;2023-09-08T02:38:30;32.37;;;14.10;;
6209;SDS011;3138;52.550;13.148;2023-09-08T02:40:56;25.97;;;16.40;;
6209;SDS011;3138;52.550;13.148;2023-09-08T02:43:23;20.40;;;14.20;;
6209;SDS011;3138;52.550;13.148;2023-09-08T02:45:50;22.50;;;14.27;;
6209;SDS011;3138;52.550;13.148;2023-09-08T02:48:17;23.43;;;15.10;;
6209;SDS011;3138;52.550;13.148;2023-09-08T02:50:44;20.27;;;14.53;;
6209;SDS011;3138;52.550;13.148;2023-09-08T02:53:12;23.80;;;16.07;;
6209;SDS011;3138;52.550;13.148;2023-09-08T02:55:39;24.37;;;14.80;;
6209;SDS011;3138;52.550;13.148;2023-09-08T02:58:05;23.87;;;16.60;;
6209;SDS011;3138;52.550;13.148;2023-09-08T03:00:32;24.30;;;16.03;;
6209;SDS011;3138;52.550;13.148;2023-09-08T03:02:59;16.90;;;14.97;;
6209;SDS011;3138;52.550;13.148;2023-09-08T03:05:26;15.80;;;13.73;;
6209;SDS011;3138;52.550;13.148;2023-09-08T03:07:53;22.60;;;16.30;;
6209;SDS011;3138;52.550;13.148;2023-09-08T03:10:21;17.33;;;13.90;;
6209;SDS011;3138;52.550;13.148;2023-09-08T03:12:48;25.33;;;16.47;;
6209;SDS011;3138;52.550;13.148;2023-09-08T03:15:15;22.23;;;14.93;;
6209;SDS011;3138;52.550;13.148;2023-09-08T03:17:41;18.73;;;15.87;;
6209;SDS011;3138;52.550;13.148;2023-09-08T03:20:09;19.73;;;14.20;;
6209;SDS011;3138;52.550;13.148;2023-09-08T03:22:38;24.00;;;15.53;;
6209;SDS011;3138;52.550;13.148;2023-09-08T03:25:05;22.83;;;15.73;;
6209;SDS011;3138;52.550;13.148;2023-09-08T03:27:34;20.53;;;14.57;;
6209;SDS011;3138;52.550;13.148;2023-09-08T03:30:01;18.00;;;14.30;;
6209;SDS011;3138;52.550;13.148;2023-09-08T03:32:29;20.40;;;15.47;;
6209;SDS011;3138;52.550;13.148;2023-09-08T03:34:56;22.43;;;14.73;;
6209;SDS011;3138;52.550;13.148;2023-09-08T03:37:23;20.53;;;14.20;;
6209;SDS011;3138;52.550;13.148;2023-09-08T03:39:51;20.10;;;15.57;;
6209;SDS011;3138;52.550;13.148;2023-09-08T03:42:18;21.70;;;16.17;;
6209;SDS011;3138;52.550;13.148;2023-09-08T03:44:46;17.57;;;14.23;;
6209;SDS011;3138;52.550;13.148;2023-09-08T03:47:13;31.77;;;14.30;;
6209;SDS011;3138;52.550;13.148;2023-09-08T03:49:39;18.40;;;14.60;;
6209;SDS011;3138;52.550;13.148;2023-09-08T03:52:06;21.43;;;15.03;;
6209;SDS011;3138;52.550;13.148;2023-09-08T03:54:33;24.47;;;14.83;;
6209;SDS011;3138;52.550;13.148;2023-09-08T03:57:03;32.63;;;15.17;;
6209;SDS011;3138;52.550;13.148;2023-09-08T03:59:30;19.70;;;14.33;;
6209;SDS011;3138;52.550;13.148;2023-09-08T04:01:59;27.57;;;15.90;;
6209;SDS011;3138;52.550;13.148;2023-09-08T04:04:26;21.40;;;15.70;;
6209;SDS011;3138;52.550;13.148;2023-09-08T04:06:53;32.97;;;14.10;;
6209;SDS011;3138;52.550;13.148;2023-09-08T04:09:20;27.23;;;15.33;;
6209;SDS011;3138;52.550;13.148;2023-09-08T04:11:47;23.67;;;15.37;;
6209;SDS011;3138;52.550;13.148;2023-09-08T04:14:13;17.87;;;15.27;;
6209;SDS011;3138;52.550;13.148;2023-09-08T04:16:40;15.97;;;13.43;;
6209;SDS011;3138;52.550;13.148;2023-09-08T04:19:08;24.40;;;14.80;;
6209;SDS011;3138;52.550;13.148;2023-09-08T04:21:35;20.93;;;15.03;;
6209;SDS011;3138;52.550;13.148;2023-09-08T04:24:02;21.73;;;14.53;;
6209;SDS011;3138;52.550;13.148;2023-09-08T04:26:30;19.43;;;15.27;;
6209;SDS011;3138;52.550;13.148;2023-09-08T04:28:56;24.20;;;15.53;;
6209;SDS011;3138;52.550;13.148;2023-09-08T04:31:23;18.97;;;14.30;;
6209;SDS011;3138;52.550;13.148;2023-09-08T04:33:50;27.90;;;15.43;;
6209;SDS011;3138;52.550;13.148;2023-09-08T04:36:19;22.43;;;15.10;;
6209;SDS011;3138;52.550;13.148;2023-09-08T04:38:46;20.43;;;15.60;;
6209;SDS011;3138;52.550;13.148;2023-09-08T04:41:13;21.50;;;14.10;;
6209;SDS011;3138;52.550;13.148;2023-09-08T04:43:40;51.80;;;17.30;;
6209;SDS011;3138;52.550;13.148;2023-09-08T04:46:07;23.13;;;15.30;;
6209;SDS011;3138;52.550;13.148;2023-09-08T04:48:33;17.17;;;14.10;;
6209;SDS011;3138;52.550;13.148;2023-09-08T04:51:00;31.20;;;14.07;;
6209;SDS011;3138;52.550;13.148;2023-09-08T04:53:28;21.10;;;14.43;;
6209;SDS011;3138;52.550;13.148;2023-09-08T04:55:55;21.70;;;14.93;;
6209;SDS011;3138;52.550;13.148;2023-09-08T04:58:22;19.53;;;15.30;;
6209;SDS011;3138;52.550;13.148;2023-09-08T05:00:49;22.10;;;14.40;;
6209;SDS011;3138;52.550;13.148;2023-09-08T05:03:16;17.60;;;13.47;;
6209;SDS011;3138;52.550;13.148;2023-09-08T05:05:43;18.13;;;14.40;;
6209;SDS011;3138;52.550;13.148;2023-09-08T05:08:11;22.90;;;15.70;;
6209;SDS011;3138;52.550;13.148;2023-09-08T05:10:39;20.90;;;15.00;;
6209;SDS011;3138;52.550;13.148;2023-09-08T05:13:06;21.93;;;16.07;;
6209;SDS011;3138;52.550;13.148;2023-09-08T05:15:32;23.33;;;16.73;;
6209;SDS011;3138;52.550;13.148;2023-09-08T05:17:59;21.93;;;16.23;;
6209;SDS011;3138;52.550;13.148;2023-09-08T05:20:26;21.37;;;16.07;;
6209;SDS011;3138;52.550;13.148;2023-09-08T05:22:53;21.43;;;16.10;;
6209;SDS011;3138;52.550;13.148;2023-09-08T05:25:20;21.50;;;15.97;;
6209;SDS011;3138;52.550;13.148;2023-09-08T05:27:48;32.03;;;18.20;;
6209;SDS011;3138;52.550;13.148;2023-09-08T05:30:15;33.23;;;16.20;;
6209;SDS011;3138;52.550;13.148;2023-09-08T05:32:42;26.93;;;15.90;;
6209;SDS011;3138;52.550;13.148;2023-09-08T05:35:08;22.97;;;18.20;;
6209;SDS011;3138;52.550;13.148;2023-09-08T05:37:35;23.37;;;18.17;;
6209;SDS011;3138;52.550;13.148;2023-09-08T05:40:02;32.60;;;18.33;;
6209;SDS011;3138;52.550;13.148;2023-09-08T05:42:30;36.30;;;18.03;;
6209;SDS011;3138;52.550;13.148;2023-09-08T05:44:58;36.00;;;20.47;;
6209;SDS011;3138;52.550;13.148;2023-09-08T05:47:25;47.67;;;21.03;;
6209;SDS011;3138;52.550;13.148;2023-09-08T05:49:52;27.40;;;20.20;;
6209;SDS011;3138;52.550;13.148;2023-09-08T05:52:18;28.23;;;18.70;;
6209;SDS011;3138;52.550;13.148;2023-09-08T05:54:45;25.20;;;18.53;;
6209;SDS011;3138;52.550;13.148;2023-09-08T05:57:12;33.67;;;18.83;;
6209;SDS011;3138;52.550;13.148;2023-09-08T05:59:39;26.13;;;16.97;;
6209;SDS011;3138;52.550;13.148;2023-09-08T06:02:07;30.47;;;18.70;;
6209;SDS011;3138;52.550;13.148;2023-09-08T06:04:34;23.00;;;16.53;;
6209;SDS011;3138;52.550;13.148;2023-09-08T06:07:01;28.73;;;15.70;;
6209;SDS011;3138;52.550;13.148;2023-09-08T06:09:28;20.57;;;17.00;;
6209;SDS011;3138;52.550;13.148;2023-09-08T06:11:55;21.50;;;16.40;;
6209;SDS011;3138;52.550;13.148;2023-09-08T06:14:21;46.03;;;16.50;;
6209;SDS011;3138;52.550;13.148;2023-09-08T06:16:48;23.63;;;16.10;;
6209;SDS011;3138;52.550;13.148;2023-09-08T06:19:16;20.57;;;15.50;;
6209;SDS011;3138;52.550;13.148;2023-09-08T06:21:43;22.10;;;13.80;;
6209;SDS011;3138;52.550;13.148;2023-09-08T06:24:10;28.33;;;14.73;;
6209;SDS011;3138;52.550;13.148;2023-09-08T06:26:37;30.33;;;14.43;;
6209;SDS011;3138;52.550;13.148;2023-09-08T06:29:04;20.37;;;12.80;;
6209;SDS011;3138;52.550;13.148;2023-09-08T06:31:31;20.40;;;13.33;;
6209;SDS011;3138;52.550;13.148;2023-09-08T06:33:58;15.57;;;12.20;;
6209;SDS011;3138;52.550;13.148;2023-09-08T06:36:26;22.90;;;13.27;;
6209;SDS011;3138;52.550;13.148;2023-09-08T06:38:53;24.57;;;13.63;;
6209;SDS011;3138;52.550;13.148;2023-09-08T06:41:19;25.63;;;13.43;;
6209;SDS011;3138;52.550;13.148;2023-09-08T06:43:48;26.40;;;12.97;;
6209;SDS011;3138;52.550;13.148;2023-09-08T06:46:14;17.00;;;12.17;;
6209;SDS011;3138;52.550;13.148;2023-09-08T06:48:42;17.93;;;12.90;;
6209;SDS011;3138;52.550;13.148;2023-09-08T06:51:08;22.50;;;12.50;;
6209;SDS011;3138;52.550;13.148;2023-09-08T06:53:37;21.03;;;12.27;;
6209;SDS011;3138;52.550;13.148;2023-09-08T06:56:04;18.43;;;11.90;;
6209;SDS011;3138;52.550;13.148;2023-09-08T06:58:31;20.47;;;12.03;;
6209;SDS011;3138;52.550;13.148;2023-09-08T07:00:57;29.67;;;12.20;;
6209;SDS011;3138;52.550;13.148;2023-09-08T07:03:24;20.33;;;11.00;;
6209;SDS011;3138;52.550;13.148;2023-09-08T07:05:52;17.53;;;11.40;;
6209;SDS011;3138;52.550;13.148;2023-09-08T07:08:19;27.63;;;11.20;;
6209;SDS011;3138;52.550;13.148;2023-09-08T07:10:51;17.20;;;10.63;;
6209;SDS011;3138;52.550;13.148;2023-09-08T07:13:18;23.60;;;10.70;;
6209;SDS011;3138;52.550;13.148;2023-09-08T07:15:45;14.40;;;10.10;;
6209;SDS011;3138;52.550;13.148;2023-09-08T07:18:12;25.93;;;11.30;;
6209;SDS011;3138;52.550;13.148;2023-09-08T07:20:39;19.93;;;10.87;;
6209;SDS011;3138;52.550;13.148;2023-09-08T07:23:05;17.97;;;11.13;;
6209;SDS011;3138;52.550;13.148;2023-09-08T07:25:32;11.80;;;9.50;;
6209;SDS011;3138;52.550;13.148;2023-09-08T07:28:01;15.83;;;10.47;;
6209;SDS011;3138;52.550;13.148;2023-09-08T07:30:27;18.10;;;9.33;;
6209;SDS011;3138;52.550;13.148;2023-09-08T07:32:54;13.90;;;10.20;;
6209;SDS011;3138;52.550;13.148;2023-09-08T07:35:23;15.60;;;10.40;;
6209;SDS011;3138;52.550;13.148;2023-09-08T07:37:49;20.90;;;9.90;;
6209;SDS011;3138;52.550;13.148;2023-09-08T07:40:16;11.80;;;8.77;;
6209;SDS011;3138;52.550;13.148;2023-09-08T07:42:43;19.60;;;9.67;;
6209;SDS011;3138;52.550;13.148;2023-09-08T07:45:11;17.77;;;9.73;;
6209;SDS011;3138;52.550;13.148;2023-09-08T07:47:38;15.70;;;8.93;;
6209;SDS011;3138;52.550;13.148;2023-09-08T07:50:18;26.53;;;9.77;;
6209;SDS011;3138;52.550;13.148;2023-09-08T07:52:46;17.90;;;10.77;;
6209;SDS011;3138;52.550;13.148;2023-09-08T07:55:13;12.73;;;9.17;;
6209;SDS011;3138;52.550;13.148;2023-09-08T07:57:41;12.47;;;9.23;;
6209;SDS011;3138;52.550;13.148;2023-09-08T08:00:08;15.03;;;9.63;;
6209;SDS011;3138;52.550;13.148;2023-09-08T08:02:39;17.17;;;9.33;;
6209;SDS011;3138;52.550;13.148;2023-09-08T08:05:08;17.37;;;10.90;;
6209;SDS011;3138;52.550;13.148;2023-09-08T08:07:34;14.07;;;8.70;;
6209;SDS011;3138;52.550;13.148;2023-09-08T08:10:01;12.70;;;8.57;;
6209;SDS011;3138;52.550;13.148;2023-09-08T08:12:29;11.37;;;8.67;;
6209;SDS011;3138;52.550;13.148;2023-09-08T08:14:55;31.03;;;10.30;;
6209;SDS011;3138;52.550;13.148;2023-09-08T08:17:23;19.23;;;9.53;;
6209;SDS011;3138;52.550;13.148;2023-09-08T08:19:52;20.77;;;9.60;;
6209;SDS011;3138;52.550;13.148;2023-09-08T08:22:20;17.90;;;8.17;;
6209;SDS011;3138;52.550;13.148;2023-09-08T08:24:47;18.93;;;10.27;;
6209;SDS011;3138;52.550;13.148;2023-09-08T08:27:13;18.60;;;8.00;;
6209;SDS011;3138;52.550;13.148;2023-09-08T08:29:40;16.00;;;8.97;;
6209;SDS011;3138;52.550;13.148;2023-09-08T08:32:07;22.23;;;8.50;;
6209;SDS011;3138;52.550;13.148;2023-09-08T08:34:34;10.60;;;7.80;;
6209;SDS011;3138;52.550;13.148;2023-09-08T08:37:02;14.70;;;9.33;;
6209;SDS011;3138;52.550;13.148;2023-09-08T08:39:29;21.17;;;8.33;;
6209;SDS011;3138;52.550;13.148;2023-09-08T08:41:56;15.40;;;7.43;;
6209;SDS011;3138;52.550;13.148;2023-09-08T08:44:23;13.47;;;8.83;;
6209;SDS011;3138;52.550;13.148;2023-09-08T08:46:50;18.10;;;8.63;;
6209;SDS011;3138;52.550;13.148;2023-09-08T08:49:19;11.30;;;8.50;;
6209;SDS011;3138;52.550;13.148;2023-09-08T08:51:47;15.80;;;7.83;;
6209;SDS011;3138;52.550;13.148;2023-09-08T08:54:17;14.30;;;7.33;;
6209;SDS011;3138;52.550;13.148;2023-09-08T08:56:44;32.43;;;8.43;;
6209;SDS011;3138;52.550;13.148;2023-09-08T08:59:11;12.90;;;7.73;;
6209;SDS011;3138;52.550;13.148;2023-09-08T09:01:39;15.13;;;8.60;;
6209;SDS011;3138;52.550;13.148;2023-09-08T09:04:08;13.73;;;8.20;;
6209;SDS011;3138;52.550;13.148;2023-09-08T09:06:36;13.33;;;8.40;;
6209;SDS011;3138;52.550;13.148;2023-09-08T09:09:03;15.07;;;7.37;;
6209;SDS011;3138;52.550;13.148;2023-09-08T09:11:31;11.60;;;7.50;;
6209;SDS011;3138;52.550;13.148;2023-09-08T09:13:58;11.07;;;7.20;;
6209;SDS011;3138;52.550;13.148;2023-09-08T09:16:25;16.40;;;7.50;;
6209;SDS011;3138;52.550;13.148;2023-09-08T09:18:55;13.20;;;8.00;;
6209;SDS011;3138;52.550;13.148;2023-09-08T09:21:23;12.70;;;7.97;;
6209;SDS011;3138;52.550;13.148;2023-09-08T09:23:51;12.80;;;7.77;;
6209;SDS011;3138;52.550;13.148;2023-09-08T09:26:24;15.63;;;8.03;;
6209;SDS011;3138;52.550;13.148;2023-09-08T09:28:53;15.83;;;8.17;;
6209;SDS011;3138;52.550;13.148;2023-09-08T09:31:23;10.83;;;7.33;;
6209;SDS011;3138;52.550;13.148;2023-09-08T09:34:00;9.60;;;8.00;;
6209;SDS011;3138;52.550;13.148;2023-09-08T09:36:30;8.20;;;7.13;;
6209;SDS011;3138;52.550;13.148;2023-09-08T09:38:58;14.93;;;9.07;;
6209;SDS011;3138;52.550;13.148;2023-09-08T09:41:25;16.03;;;7.50;;
6209;SDS011;3138;52.550;13.148;2023-09-08T09:43:55;13.70;;;7.67;;
6209;SDS011;3138;52.550;13.148;2023-09-08T09:46:23;12.90;;;7.60;;
6209;SDS011;3138;52.550;13.148;2023-09-08T09:48:50;9.93;;;7.67;;
6209;SDS011;3138;52.550;13.148;2023-09-08T09:51:19;10.43;;;7.07;;
6209;SDS011;3138;52.550;13.148;2023-09-08T09:53:46;18.90;;;8.00;;
6209;SDS011;3138;52.550;13.148;2023-09-08T09:56:15;18.00;;;7.87;;
6209;SDS011;3138;52.550;13.148;2023-09-08T09:58:43;9.60;;;7.73;;
6209;SDS011;3138;52.550;13.148;2023-09-08T10:01:12;14.90;;;8.13;;
6209;SDS011;3138;52.550;13.148;2023-09-08T10:03:40;15.80;;;7.03;;
6209;SDS011;3138;52.550;13.148;2023-09-08T10:06:07;18.63;;;8.20;;
6209;SDS011;3138;52.550;13.148;2023-09-08T10:08:35;9.50;;;7.00;;
6209;SDS011;3138;52.550;13.148;2023-09-08T10:11:03;24.43;;;7.93;;
6209;SDS011;3138;52.550;13.148;2023-09-08T10:13:33;8.13;;;7.10;;
6209;SDS011;3138;52.550;13.148;2023-09-08T10:16:05;9.13;;;6.87;;
6209;SDS011;3138;52.550;13.148;2023-09-08T10:18:36;12.87;;;7.43;;
6209;SDS011;3138;52.550;13.148;2023-09-08T10:21:05;9.67;;;7.33;;
6209;SDS011;3138;52.550;13.148;2023-09-08T10:23:35;17.47;;;7.90;;
6209;SDS011;3138;52.550;13.148;2023-09-08T10:26:06;8.17;;;7.10;;
6209;SDS011;3138;52.550;13.148;2023-09-08T10:28:36;17.13;;;7.73;;
6209;SDS011;3138;52.550;13.148;2023-09-08T10:31:04;14.93;;;8.20;;
6209;SDS011;3138;52.550;13.148;2023-09-08T10:33:32;14.03;;;7.60;;
6209;SDS011;3138;52.550;13.148;2023-09-08T10:36:01;11.97;;;7.80;;
6209;SDS011;3138;52.550;13.148;2023-09-08T10:38:31;12.00;;;7.43;;
6209;SDS011;3138;52.550;13.148;2023-09-08T10:43:54;10.53;;;6.80;;
6209;SDS011;3138;52.550;13.148;2023-09-08T10:46:21;17.97;;;6.80;;
6209;SDS011;3138;52.550;13.148;2023-09-08T10:48:49;10.10;;;7.10;;
6209;SDS011;3138;52.550;13.148;2023-09-08T10:51:20;14.03;;;7.30;;
6209;SDS011;3138;52.550;13.148;2023-09-08T10:53:48;12.33;;;7.40;;
6209;SDS011;3138;52.550;13.148;2023-09-08T10:56:16;16.37;;;7.23;;
6209;SDS011;3138;52.550;13.148;2023-09-08T10:58:43;9.63;;;6.27;;
6209;SDS011;3138;52.550;13.148;2023-09-08T11:01:15;7.40;;;6.07;;
6209;SDS011;3138;52.550;13.148;2023-09-08T11:03:44;10.43;;;6.27;;
6209;SDS011;3138;52.550;13.148;2023-09-08T11:06:15;12.77;;;7.93;;
6209;SDS011;3138;52.550;13.148;2023-09-08T11:08:45;10.23;;;6.33;;
6209;SDS011;3138;52.550;13.148;2023-09-08T11:11:12;9.57;;;6.97;;
6209;SDS011;3138;52.550;13.148;2023-09-08T11:13:40;19.93;;;8.20;;
6209;SDS011;3138;52.550;13.148;2023-09-08T11:16:07;12.47;;;7.43;;
6209;SDS011;3138;52.550;13.148;2023-09-08T11:18:34;8.90;;;6.87;;
6209;SDS011;3138;52.550;13.148;2023-09-08T11:21:01;9.27;;;7.00;;
6209;SDS011;3138;52.550;13.148;2023-09-08T11:23:29;14.27;;;6.97;;
6209;SDS011;3138;52.550;13.148;2023-09-08T11:25:57;10.00;;;6.50;;
6209;SDS011;3138;52.550;13.148;2023-09-08T11:28:26;9.43;;;6.70;;
6209;SDS011;3138;52.550;13.148;2023-09-08T11:30:54;8.70;;;5.83;;
6209;SDS011;3138;52.550;13.148;2023-09-08T11:33:21;9.13;;;6.53;;
6209;SDS011;3138;52.550;13.148;2023-09-08T11:35:50;12.60;;;6.83;;
6209;SDS011;3138;52.550;13.148;2023-09-08T11:38:18;18.50;;;7.17;;
6209;SDS011;3138;52.550;13.148;2023-09-08T11:40:50;16.93;;;7.03;;
6209;SDS011;3138;52.550;13.148;2023-09-08T11:43:18;14.17;;;7.13;;
6209;SDS011;3138;52.550;13.148;2023-09-08T11:45:45;10.20;;;5.80;;
6209;SDS011;3138;52.550;13.148;2023-09-08T11:48:13;8.67;;;5.97;;
6209;SDS011;3138;52.550;13.148;2023-09-08T11:50:41;10.57;;;6.10;;
6209;SDS011;3138;52.550;13.148;2023-09-08T11:53:09;7.67;;;6.40;;
6209;SDS011;3138;52.550;13.148;2023-09-08T11:55:36;16.73;;;6.60;;
6209;SDS011;3138;52.550;13.148;2023-09-08T11:58:03;13.63;;;6.33;;
6209;SDS011;3138;52.550;13.148;2023-09-08T12:00:32;14.63;;;6.37;;
6209;SDS011;3138;52.550;13.148;2023-09-08T12:03:09;5.97;;;5.43;;
6209;SDS011;3138;52.550;13.148;2023-09-08T12:05:37;9.40;;;6.20;;
6209;SDS011;3138;52.550;13.148;2023-09-08T12:08:05;7.47;;;6.50;;
6209;SDS011;3138;52.550;13.148;2023-09-08T12:10:37;7.97;;;6.10;;
6209;SDS011;3138;52.550;13.148;2023-09-08T12:13:04;7.93;;;6.17;;
6209;SDS011;3138;52.550;13.148;2023-09-08T12:15:33;14.60;;;6.17;;
6209;SDS011;3138;52.550;13.148;2023-09-08T12:18:01;12.97;;;5.67;;
6209;SDS011;3138;52.550;13.148;2023-09-08T12:20:30;13.33;;;6.47;;
6209;SDS011;3138;52.550;13.148;2023-09-08T12:22:58;16.30;;;6.00;;
6209;SDS011;3138;52.550;13.148;2023-09-08T12:25:26;6.83;;;5.20;;
6209;SDS011;3138;52.550;13.148;2023-09-08T12:27:56;15.97;;;6.33;;
6209;SDS011;3138;52.550;13.148;2023-09-08T12:30:24;8.50;;;6.00;;
6209;SDS011;3138;52.550;13.148;2023-09-08T12:32:56;6.17;;;5.50;;
6209;SDS011;3138;52.550;13.148;2023-09-08T12:35:24;21.53;;;5.80;;
6209;SDS011;3138;52.550;13.148;2023-09-08T12:37:54;7.73;;;5.67;;
6209;SDS011;3138;52.550;13.148;2023-09-08T12:40:24;11.37;;;5.97;;
6209;SDS011;3138;52.550;13.148;2023-09-08T12:42:51;13.70;;;5.70;;
6209;SDS011;3138;52.550;13.148;2023-09-08T12:45:18;14.23;;;6.30;;
6209;SDS011;3138;52.550;13.148;2023-09-08T12:47:46;10.77;;;5.60;;
6209;SDS011;3138;52.550;13.148;2023-09-08T12:50:14;8.60;;;5.77;;
6209;SDS011;3138;52.550;13.148;2023-09-08T12:52:41;7.80;;;6.57;;
6209;SDS011;3138;52.550;13.148;2023-09-08T12:55:08;11.83;;;6.17;;
6209;SDS011;3138;52.550;13.148;2023-09-08T12:57:35;11.77;;;6.10;;
6209;SDS011;3138;52.550;13.148;2023-09-08T13:00:03;22.33;;;6.20;;
6209;SDS011;3138;52.550;13.148;2023-09-08T13:02:30;13.60;;;5.67;;
6209;SDS011;3138;52.550;13.148;2023-09-08T13:04:57;11.00;;;6.23;;
6209;SDS011;3138;52.550;13.148;2023-09-08T13:07:26;11.03;;;6.17;;
6209;SDS011;3138;52.550;13.148;2023-09-08T13:09:52;11.47;;;6.47;;
6209;SDS011;3138;52.550;13.148;2023-09-08T13:12:19;9.90;;;5.60;;
6209;SDS011;3138;52.550;13.148;2023-09-08T13:14:46;11.47;;;6.63;;
6209;SDS011;3138;52.550;13.148;2023-09-08T13:17:14;16.10;;;6.00;;
6209;SDS011;3138;52.550;13.148;2023-09-08T13:19:41;16.10;;;7.00;;
6209;SDS011;3138;52.550;13.148;2023-09-08T13:22:08;11.13;;;7.40;;
6209;SDS011;3138;52.550;13.148;2023-09-08T13:24:36;10.70;;;6.43;;
6209;SDS011;3138;52.550;13.148;2023-09-08T13:27:04;9.90;;;6.30;;
6209;SDS011;3138;52.550;13.148;2023-09-08T13:29:31;16.40;;;7.50;;
6209;SDS011;3138;52.550;13.148;2023-09-08T13:31:58;8.23;;;5.80;;
6209;SDS011;3138;52.550;13.148;2023-09-08T13:34:24;8.37;;;6.70;;
6209;SDS011;3138;52.550;13.148;2023-09-08T13:36:51;20.53;;;7.40;;
6209;SDS011;3138;52.550;13.148;2023-09-08T13:39:18;8.00;;;6.37;;
6209;SDS011;3138;52.550;13.148;2023-09-08T13:41:47;7.30;;;6.63;;
6209;SDS011;3138;52.550;13.148;2023-09-08T13:44:16;9.00;;;7.07;;
6209;SDS011;3138;52.550;13.148;2023-09-08T13:46:44;10.90;;;6.83;;
6209;SDS011;3138;52.550;13.148;2023-09-08T13:49:11;18.80;;;6.53;;
6209;SDS011;3138;52.550;13.148;2023-09-08T13:51:38;6.90;;;6.17;;
6209;SDS011;3138;52.550;13.148;2023-09-08T13:54:05;12.40;;;7.03;;
6209;SDS011;3138;52.550;13.148;2023-09-08T13:56:32;12.00;;;6.93;;
6209;SDS011;3138;52.550;13.148;2023-09-08T13:59:01;13.87;;;6.37;;
6209;SDS011;3138;52.550;13.148;2023-09-08T14:01:28;10.13;;;5.63;;
6209;SDS011;3138;52.550;13.148;2023-09-08T14:03:55;10.60;;;6.20;;
6209;SDS011;3138;52.550;13.148;2023-09-08T14:06:22;10.63;;;6.63;;
6209;SDS011;3138;52.550;13.148;2023-09-08T14:08:49;9.27;;;6.70;;
6209;SDS011;3138;52.550;13.148;2023-09-08T14:11:16;7.80;;;6.57;;
6209;SDS011;3138;52.550;13.148;2023-09-08T14:13:43;8.63;;;5.73;;
6209;SDS011;3138;52.550;13.148;2023-09-08T14:16:12;6.57;;;5.37;;
6209;SDS011;3138;52.550;13.148;2023-09-08T14:18:38;7.37;;;5.90;;
6209;SDS011;3138;52.550;13.148;2023-09-08T14:21:06;10.87;;;6.07;;
6209;SDS011;3138;52.550;13.148;2023-09-08T14:23:33;9.23;;;5.67;;
6209;SDS011;3138;52.550;13.148;2023-09-08T14:26:02;10.67;;;6.77;;
6209;SDS011;3138;52.550;13.148;2023-09-08T14:28:29;11.47;;;6.80;;
6209;SDS011;3138;52.550;13.148;2023-09-08T14:30:57;8.30;;;5.63;;
6209;SDS011;3138;52.550;13.148;2023-09-08T14:33:25;14.23;;;5.70;;
6209;SDS011;3138;52.550;13.148;2023-09-08T14:35:52;9.03;;;6.27;;
6209;SDS011;3138;52.550;13.148;2023-09-08T14:38:21;13.10;;;5.83;;
6209;SDS011;3138;52.550;13.148;2023-09-08T14:40:57;9.13;;;6.50;;
6209;SDS011;3138;52.550;13.148;2023-09-08T14:43:25;8.00;;;5.90;;
6209;SDS011;3138;52.550;13.148;2023-09-08T14:45:52;10.47;;;5.83;;
6209;SDS011;3138;52.550;13.148;2023-09-08T14:48:22;22.40;;;6.77;;
6209;SDS011;3138;52.550;13.148;2023-09-08T14:50:50;14.20;;;6.03;;